Time;durP1;ratioP1;P1;durP2;ratioP2;P2;SDS_P1;SDS_P2;PMS_P1;PMS_P2;Temp;Humidity;BMP_temperature;BMP_pressure;BME280_temperature;BME280_humidity;BME280_pressure;Samples;Min_cycle;Max_cycle;Signal;HPM_P1;HPM_P2
2021/09/04 00:01:19;;;;;;;13.77;8.43;;;;;;;;;;5100269;28;20024;-88
2021/09/04 00:03:45;;;;;;;14.45;7.90;;;;;;;;;;5100113;28;20031;-88
2021/09/04 00:06:11;;;;;;;13.73;8.23;;;;;;;;;;5100330;28;20024;-88
2021/09/04 00:08:38;;;;;;;12.90;9.00;;;;;;;;;;5100115;28;20237;-88
2021/09/04 00:11:04;;;;;;;16.63;9.05;;;;;;;;;;5101271;28;20065;-87
2021/09/04 00:13:30;;;;;;;15.05;8.65;;;;;;;;;;5100093;28;20028;-88
2021/09/04 00:15:56;;;;;;;11.50;8.35;;;;;;;;;;5101006;28;20055;-88
2021/09/04 00:18:23;;;;;;;13.60;8.90;;;;;;;;;;5100506;28;20315;-89
2021/09/04 00:20:49;;;;;;;12.65;8.40;;;;;;;;;;5101083;28;20485;-90
2021/09/04 00:23:15;;;;;;;13.05;8.38;;;;;;;;;;5101127;28;20024;-90
2021/09/04 00:25:41;;;;;;;13.25;8.15;;;;;;;;;;5101020;28;20026;-89
2021/09/04 00:28:07;;;;;;;11.65;8.23;;;;;;;;;;5099840;28;20086;-89
2021/09/04 00:30:33;;;;;;;17.20;8.45;;;;;;;;;;5099823;28;20020;-88
2021/09/04 00:32:59;;;;;;;15.45;8.55;;;;;;;;;;5100942;28;20115;-86
2021/09/04 00:35:25;;;;;;;15.60;7.97;;;;;;;;;;5100614;28;20020;-90
2021/09/04 00:37:51;;;;;;;14.02;8.77;;;;;;;;;;5099616;28;20035;-90
2021/09/04 00:40:17;;;;;;;17.10;8.80;;;;;;;;;;5099762;28;20067;-90
2021/09/04 00:42:43;;;;;;;14.95;9.23;;;;;;;;;;5099555;28;20410;-91
2021/09/04 00:45:09;;;;;;;13.82;8.80;;;;;;;;;;5100426;28;20416;-91
2021/09/04 00:47:36;;;;;;;13.93;9.40;;;;;;;;;;5082307;28;20112;-90
2021/09/04 00:50:02;;;;;;;11.15;8.82;;;;;;;;;;5099948;28;20325;-89
2021/09/04 00:52:28;;;;;;;13.07;9.75;;;;;;;;;;5100360;28;20024;-89
2021/09/04 00:54:54;;;;;;;13.90;9.27;;;;;;;;;;5100173;28;20024;-89
2021/09/04 00:57:20;;;;;;;14.88;8.90;;;;;;;;;;5082863;28;20380;-89
2021/09/04 00:59:46;;;;;;;15.52;9.32;;;;;;;;;;5099252;28;20047;-88
2021/09/04 01:02:12;;;;;;;19.08;9.30;;;;;;;;;;5099151;28;20027;-87
2021/09/04 01:04:38;;;;;;;17.65;9.52;;;;;;;;;;5099205;28;20037;-93
2021/09/04 01:07:04;;;;;;;13.52;9.48;;;;;;;;;;5100077;28;20107;-93
2021/09/04 01:09:30;;;;;;;15.63;9.02;;;;;;;;;;5099965;28;20070;-92
2021/09/04 01:11:57;;;;;;;12.95;9.25;;;;;;;;;;5099916;28;20412;-93
2021/09/04 01:14:23;;;;;;;24.80;9.98;;;;;;;;;;5100113;28;20069;-92
2021/09/04 01:16:49;;;;;;;13.18;9.52;;;;;;;;;;5082182;28;20063;-93
2021/09/04 01:19:15;;;;;;;14.77;9.88;;;;;;;;;;5099778;28;20028;-92
2021/09/04 01:21:41;;;;;;;12.13;9.98;;;;;;;;;;5098910;28;20069;-88
2021/09/04 01:24:08;;;;;;;18.20;10.48;;;;;;;;;;5099637;28;20024;-88
2021/09/04 01:26:34;;;;;;;15.35;9.90;;;;;;;;;;5099391;28;20402;-89
2021/09/04 01:29:00;;;;;;;16.00;9.70;;;;;;;;;;5100039;28;20123;-91
2021/09/04 01:31:27;;;;;;;12.80;9.73;;;;;;;;;;5099756;28;20099;-91
2021/09/04 01:33:54;;;;;;;14.13;9.70;;;;;;;;;;5099478;28;20058;-91
2021/09/04 01:36:27;;;;;;;13.48;10.13;;;;;;;;;;5099411;28;20058;-91
2021/09/04 01:38:53;;;;;;;13.52;9.63;;;;;;;;;;5099357;28;20035;-85
2021/09/04 01:41:19;;;;;;;16.77;9.38;;;;;;;;;;5099591;28;20035;-85
2021/09/04 01:43:45;;;;;;;13.02;10.52;;;;;;;;;;5090732;28;20024;-89
2021/09/04 01:46:11;;;;;;;16.77;10.48;;;;;;;;;;5092197;28;20077;-88
2021/09/04 01:48:37;;;;;;;15.85;10.73;;;;;;;;;;5090762;28;20027;-88
2021/09/04 01:51:03;;;;;;;17.30;10.50;;;;;;;;;;5099270;28;20031;-89
2021/09/04 01:53:29;;;;;;;17.05;10.88;;;;;;;;;;5098109;28;20421;-88
2021/09/04 01:55:55;;;;;;;14.35;10.70;;;;;;;;;;5098153;28;20035;-89
2021/09/04 01:58:21;;;;;;;17.15;10.70;;;;;;;;;;5099033;28;20036;-88
2021/09/04 02:00:47;;;;;;;19.17;10.90;;;;;;;;;;5098798;28;20030;-90
2021/09/04 02:03:13;;;;;;;13.88;10.85;;;;;;;;;;5098289;28;20107;-92
2021/09/04 02:05:40;;;;;;;16.40;11.10;;;;;;;;;;5098744;28;20020;-92
2021/09/04 02:08:08;;;;;;;15.85;10.93;;;;;;;;;;5098876;28;20028;-88
2021/09/04 02:10:35;;;;;;;15.20;11.25;;;;;;;;;;5097970;28;20024;-88
2021/09/04 02:13:01;;;;;;;14.30;11.27;;;;;;;;;;5097780;28;20116;-87
2021/09/04 02:15:27;;;;;;;14.82;10.50;;;;;;;;;;5098699;28;20107;-87
2021/09/04 02:17:53;;;;;;;14.45;10.82;;;;;;;;;;5098450;28;20042;-87
2021/09/04 02:20:19;;;;;;;15.85;10.30;;;;;;;;;;5098611;28;20024;-88
2021/09/04 02:22:45;;;;;;;12.95;10.45;;;;;;;;;;5097598;28;20119;-87
2021/09/04 02:25:11;;;;;;;15.00;10.50;;;;;;;;;;5098666;28;20406;-93
2021/09/04 02:27:37;;;;;;;15.38;10.98;;;;;;;;;;5097675;28;20023;-90
2021/09/04 02:30:05;;;;;;;17.77;11.00;;;;;;;;;;5097545;28;20056;-90
2021/09/04 02:32:31;;;;;;;15.55;11.18;;;;;;;;;;5097351;28;20024;-90
2021/09/04 02:34:57;;;;;;;16.30;10.55;;;;;;;;;;5098370;28;20024;-90
2021/09/04 02:37:23;;;;;;;18.55;10.98;;;;;;;;;;5098439;28;20028;-90
2021/09/04 02:39:49;;;;;;;14.10;10.63;;;;;;;;;;5098194;28;20042;-91
2021/09/04 02:42:15;;;;;;;17.95;11.05;;;;;;;;;;5098331;28;20056;-91
2021/09/04 02:44:42;;;;;;;15.75;11.88;;;;;;;;;;5098560;28;20026;-88
2021/09/04 02:47:08;;;;;;;13.73;10.23;;;;;;;;;;5098024;28;20024;-88
2021/09/04 02:49:34;;;;;;;15.38;11.38;;;;;;;;;;5097982;28;20020;-88
2021/09/04 02:52:00;;;;;;;16.00;11.77;;;;;;;;;;5098024;28;20115;-87
2021/09/04 02:54:26;;;;;;;13.73;10.20;;;;;;;;;;5097996;28;20020;-87
2021/09/04 02:56:52;;;;;;;15.73;10.65;;;;;;;;;;5098089;28;20020;-88
2021/09/04 02:59:18;;;;;;;14.90;10.48;;;;;;;;;;5098112;28;20032;-89
2021/09/04 03:01:44;;;;;;;16.48;10.20;;;;;;;;;;5098231;28;20024;-87
2021/09/04 03:04:10;;;;;;;14.70;10.32;;;;;;;;;;5097059;28;20048;-88
2021/09/04 03:06:36;;;;;;;15.30;10.40;;;;;;;;;;5096579;28;20039;-88
2021/09/04 03:09:02;;;;;;;13.93;10.48;;;;;;;;;;5097754;28;20111;-90
2021/09/04 03:11:28;;;;;;;17.40;11.45;;;;;;;;;;5097787;28;20024;-88
2021/09/04 03:13:54;;;;;;;17.88;11.10;;;;;;;;;;5097780;28;20026;-88
2021/09/04 03:16:20;;;;;;;20.17;11.23;;;;;;;;;;5097946;28;20043;-88
2021/09/04 03:18:46;;;;;;;14.32;10.68;;;;;;;;;;5097607;28;20044;-88
2021/09/04 03:21:13;;;;;;;14.50;10.30;;;;;;;;;;5097847;28;20042;-87
2021/09/04 03:23:39;;;;;;;16.60;11.13;;;;;;;;;;5097549;28;20402;-87
2021/09/04 03:26:05;;;;;;;17.75;10.85;;;;;;;;;;5097608;28;20420;-89
2021/09/04 03:28:31;;;;;;;18.63;12.25;;;;;;;;;;5096705;28;20127;-88
2021/09/04 03:30:57;;;;;;;18.33;11.90;;;;;;;;;;5096366;28;20040;-88
2021/09/04 03:33:23;;;;;;;17.65;11.65;;;;;;;;;;5096661;28;20061;-87
2021/09/04 03:35:49;;;;;;;19.15;12.65;;;;;;;;;;5097661;28;20085;-88
2021/09/04 03:38:15;;;;;;;16.90;11.32;;;;;;;;;;5097558;28;20059;-88
2021/09/04 03:40:41;;;;;;;19.13;10.65;;;;;;;;;;5097478;28;20016;-88
2021/09/04 03:43:07;;;;;;;20.20;12.45;;;;;;;;;;5096127;28;20028;-88
2021/09/04 03:45:34;;;;;;;16.25;10.98;;;;;;;;;;5097587;28;20040;-88
2021/09/04 03:48:00;;;;;;;15.95;10.88;;;;;;;;;;5097505;28;20032;-90
2021/09/04 03:50:27;;;;;;;16.50;11.70;;;;;;;;;;5097710;28;20027;-89
2021/09/04 03:52:53;;;;;;;16.10;11.95;;;;;;;;;;5097111;28;20028;-88
2021/09/04 03:55:19;;;;;;;14.52;11.27;;;;;;;;;;5097452;28;20107;-89
2021/09/04 03:57:45;;;;;;;21.55;11.38;;;;;;;;;;5097226;28;20111;-90
2021/09/04 04:00:11;;;;;;;17.50;10.75;;;;;;;;;;5097396;28;20402;-87
2021/09/04 04:02:37;;;;;;;14.68;11.25;;;;;;;;;;5095918;28;20028;-87
2021/09/04 04:05:03;;;;;;;16.27;11.25;;;;;;;;;;5096275;28;20028;-86
2021/09/04 04:07:29;;;;;;;18.00;10.98;;;;;;;;;;5097227;28;20108;-88
2021/09/04 04:09:56;;;;;;;18.38;11.27;;;;;;;;;;5096363;28;20469;-88
2021/09/04 04:12:22;;;;;;;15.77;11.40;;;;;;;;;;5097355;28;20047;-87
2021/09/04 04:14:48;;;;;;;23.00;11.00;;;;;;;;;;5097295;28;20116;-88
2021/09/04 04:17:14;;;;;;;19.08;10.38;;;;;;;;;;5096738;28;20051;-87
2021/09/04 04:19:40;;;;;;;16.40;10.23;;;;;;;;;;5097224;28;20020;-88
2021/09/04 04:22:06;;;;;;;20.35;10.98;;;;;;;;;;5095953;28;20032;-88
2021/09/04 04:24:32;;;;;;;15.68;10.45;;;;;;;;;;5096209;28;20020;-88
2021/09/04 04:26:58;;;;;;;17.10;10.43;;;;;;;;;;5100808;28;20035;-88
2021/09/04 04:29:24;;;;;;;18.80;10.27;;;;;;;;;;5101013;28;20028;-87
2021/09/04 04:31:50;;;;;;;16.75;10.02;;;;;;;;;;5099736;28;20059;-87
2021/09/04 04:34:16;;;;;;;16.38;10.27;;;;;;;;;;5082417;28;20047;-87
2021/09/04 04:36:42;;;;;;;21.65;11.18;;;;;;;;;;5099747;28;20118;-86
2021/09/04 04:39:08;;;;;;;18.48;10.45;;;;;;;;;;5099656;28;20401;-88
2021/09/04 04:41:34;;;;;;;19.45;11.32;;;;;;;;;;5100192;28;20341;-87
2021/09/04 04:44:00;;;;;;;21.52;10.65;;;;;;;;;;5100713;28;20039;-87
2021/09/04 04:46:26;;;;;;;21.13;10.70;;;;;;;;;;5100524;28;20024;-87
2021/09/04 04:48:52;;;;;;;23.75;12.07;;;;;;;;;;5099264;28;20028;-87
2021/09/04 04:51:18;;;;;;;22.40;10.57;;;;;;;;;;5100300;28;20024;-88
2021/09/04 04:53:44;;;;;;;23.45;11.35;;;;;;;;;;5100179;28;20057;-89
2021/09/04 04:56:10;;;;;;;18.48;9.90;;;;;;;;;;5099130;28;20112;-89
2021/09/04 04:58:37;;;;;;;21.08;9.65;;;;;;;;;;5100133;28;20032;-89
2021/09/04 05:01:03;;;;;;;18.63;9.93;;;;;;;;;;5100404;28;20020;-88
2021/09/04 05:03:29;;;;;;;19.67;10.35;;;;;;;;;;5099155;28;20114;-88
2021/09/04 05:05:55;;;;;;;18.27;9.55;;;;;;;;;;5098878;28;20337;-89
2021/09/04 05:08:21;;;;;;;21.10;10.00;;;;;;;;;;5100117;28;20020;-88
2021/09/04 05:10:47;;;;;;;15.85;9.90;;;;;;;;;;5099072;28;20024;-90
2021/09/04 05:13:13;;;;;;;16.35;10.05;;;;;;;;;;5099930;28;20393;-90
2021/09/04 05:15:39;;;;;;;16.95;9.75;;;;;;;;;;5100118;28;20107;-91
2021/09/04 05:18:05;;;;;;;20.50;10.05;;;;;;;;;;5099790;28;20067;-90
2021/09/04 05:20:31;;;;;;;20.40;10.82;;;;;;;;;;5097263;28;20024;-88
2021/09/04 05:26:01;;;;;;;17.90;10.15;;;;;;;;;;5099924;28;20042;-89
2021/09/04 05:28:27;;;;;;;18.75;11.43;;;;;;;;;;5099596;28;20036;-89
2021/09/04 05:30:53;;;;;;;17.50;9.90;;;;;;;;;;5099580;28;20401;-90
2021/09/04 05:33:19;;;;;;;15.77;8.75;;;;;;;;;;5098667;28;20318;-90
2021/09/04 05:35:45;;;;;;;16.85;9.52;;;;;;;;;;5098651;28;20032;-89
2021/09/04 05:38:11;;;;;;;17.17;9.27;;;;;;;;;;5099393;28;20115;-89
2021/09/04 05:40:37;;;;;;;11.88;8.15;;;;;;;;;;5099356;28;20028;-92
2021/09/04 05:43:03;;;;;;;10.20;7.55;;;;;;;;;;5099465;28;20097;-91
2021/09/04 05:45:29;;;;;;;11.73;8.27;;;;;;;;;;5098381;28;20039;-91
2021/09/04 05:47:55;;;;;;;13.98;7.82;;;;;;;;;;5098375;28;20035;-92
2021/09/04 05:50:21;;;;;;;15.48;8.43;;;;;;;;;;5098288;28;20067;-91
2021/09/04 05:52:47;;;;;;;11.18;7.35;;;;;;;;;;5098308;28;20039;-89
2021/09/04 05:55:13;;;;;;;10.48;7.88;;;;;;;;;;5098198;28;20052;-89
2021/09/04 05:57:39;;;;;;;11.48;7.68;;;;;;;;;;5098889;28;20024;-89
2021/09/04 06:00:06;;;;;;;11.95;8.15;;;;;;;;;;5098255;28;20111;-89
2021/09/04 06:02:32;;;;;;;10.63;7.63;;;;;;;;;;5099301;28;20024;-89
2021/09/04 06:04:58;;;;;;;8.60;7.28;;;;;;;;;;5099182;28;20299;-89
2021/09/04 06:07:24;;;;;;;11.13;7.97;;;;;;;;;;5097844;28;20299;-89
2021/09/04 06:09:50;;;;;;;11.93;8.75;;;;;;;;;;5098855;28;20295;-90
2021/09/04 06:12:16;;;;;;;12.57;8.18;;;;;;;;;;5097718;28;20020;-89
2021/09/04 06:14:42;;;;;;;15.15;8.38;;;;;;;;;;5097874;28;20043;-90
2021/09/04 06:17:08;;;;;;;13.38;9.30;;;;;;;;;;5097558;28;20063;-90
2021/09/04 06:19:34;;;;;;;12.45;9.20;;;;;;;;;;5098923;28;20068;-90
2021/09/04 06:22:00;;;;;;;10.23;8.35;;;;;;;;;;5097702;28;20329;-89
2021/09/04 06:24:26;;;;;;;9.98;8.63;;;;;;;;;;5097497;28;20051;-89
2021/09/04 06:26:52;;;;;;;13.65;9.98;;;;;;;;;;5098551;28;20020;-89
2021/09/04 06:29:18;;;;;;;14.25;9.10;;;;;;;;;;5098437;28;20032;-89
2021/09/04 06:31:44;;;;;;;16.50;10.25;;;;;;;;;;5097519;28;20440;-89
2021/09/04 06:34:10;;;;;;;14.02;9.15;;;;;;;;;;5097415;28;20036;-90
2021/09/04 06:36:36;;;;;;;12.88;9.60;;;;;;;;;;5098339;28;20065;-89
2021/09/04 06:39:03;;;;;;;13.45;9.63;;;;;;;;;;5098311;28;20461;-89
2021/09/04 06:41:29;;;;;;;13.32;9.82;;;;;;;;;;5098313;28;20023;-89
2021/09/04 06:43:55;;;;;;;14.18;9.48;;;;;;;;;;5098225;28;20048;-90
2021/09/04 06:46:21;;;;;;;14.38;9.50;;;;;;;;;;5098000;28;20314;-89
2021/09/04 06:48:47;;;;;;;13.25;9.00;;;;;;;;;;5097871;28;20024;-90
2021/09/04 06:51:13;;;;;;;15.25;9.45;;;;;;;;;;5098242;28;20031;-90
2021/09/04 06:53:39;;;;;;;10.85;8.35;;;;;;;;;;5098126;28;20031;-90
2021/09/04 06:56:05;;;;;;;14.02;9.27;;;;;;;;;;5098023;28;20035;-90
2021/09/04 06:58:31;;;;;;;15.10;9.20;;;;;;;;;;5097928;28;20032;-89
2021/09/04 07:00:58;;;;;;;19.05;11.48;;;;;;;;;;5098252;28;20089;-89
2021/09/04 07:03:24;;;;;;;15.23;10.68;;;;;;;;;;5097148;28;20482;-89
2021/09/04 07:05:51;;;;;;;13.95;8.93;;;;;;;;;;5097110;28;20039;-89
2021/09/04 07:08:17;;;;;;;11.30;7.63;;;;;;;;;;5096884;28;20103;-89
2021/09/04 07:10:43;;;;;;;37.45;26.13;;;;;;;;;;5098060;28;20028;-88
2021/09/04 07:13:09;;;;;;;20.17;14.55;;;;;;;;;;5096891;28;20024;-89
2021/09/04 07:15:35;;;;;;;9.35;6.10;;;;;;;;;;5098047;28;20032;-90
2021/09/04 07:18:01;;;;;;;10.52;6.63;;;;;;;;;;5096635;28;20040;-89
2021/09/04 07:20:27;;;;;;;13.65;8.70;;;;;;;;;;5096832;28;20016;-90
2021/09/04 07:22:53;;;;;;;8.43;5.82;;;;;;;;;;5096863;28;20024;-90
2021/09/04 07:25:19;;;;;;;12.38;8.15;;;;;;;;;;5097409;28;20016;-89
2021/09/04 07:27:47;;;;;;;8.38;5.90;;;;;;;;;;5097804;28;20031;-90
2021/09/04 07:30:13;;;;;;;10.07;5.32;;;;;;;;;;5096736;28;20150;-91
2021/09/04 07:32:40;;;;;;;5.40;4.30;;;;;;;;;;5097722;28;20024;-90
2021/09/04 07:35:06;;;;;;;8.75;5.63;;;;;;;;;;5097779;28;20020;-89
2021/09/04 07:37:32;;;;;;;15.07;9.15;;;;;;;;;;5097308;28;20027;-89
2021/09/04 07:39:58;;;;;;;9.13;5.65;;;;;;;;;;5096301;28;20065;-89
2021/09/04 07:42:24;;;;;;;8.93;6.93;;;;;;;;;;5097701;28;20024;-89
2021/09/04 07:44:51;;;;;;;7.07;4.63;;;;;;;;;;5097981;28;20065;-88
2021/09/04 07:47:17;;;;;;;6.95;4.63;;;;;;;;;;5096656;28;20032;-87
2021/09/04 07:49:43;;;;;;;20.08;12.93;;;;;;;;;;5097196;28;20021;-77
2021/09/04 07:52:09;;;;;;;8.70;5.28;;;;;;;;;;5096827;28;20028;-76
2021/09/04 07:54:35;;;;;;;8.38;5.15;;;;;;;;;;5095890;28;20040;-76
2021/09/04 07:57:01;;;;;;;9.35;6.30;;;;;;;;;;5096763;28;20062;-77
2021/09/04 07:59:27;;;;;;;6.65;5.38;;;;;;;;;;5096616;28;20040;-76
2021/09/04 08:01:53;;;;;;;6.38;4.88;;;;;;;;;;5100693;28;20314;-77
2021/09/04 08:04:19;;;;;;;6.88;4.72;;;;;;;;;;5100781;28;20338;-76
2021/09/04 08:06:45;;;;;;;94.55;64.10;;;;;;;;;;5100500;28;20412;-76
2021/09/04 08:09:11;;;;;;;82.97;55.03;;;;;;;;;;5100430;28;20771;-76
2021/09/04 08:11:37;;;;;;;51.78;35.05;;;;;;;;;;5100524;28;20420;-76
2021/09/04 08:14:03;;;;;;;142.20;101.10;;;;;;;;;;5099453;28;20024;-76
2021/09/04 08:16:30;;;;;;;33.65;23.30;;;;;;;;;;5099476;28;20034;-76
2021/09/04 08:18:56;;;;;;;18.20;12.07;;;;;;;;;;5100275;28;20081;-77
2021/09/04 08:21:22;;;;;;;237.95;155.95;;;;;;;;;;5100396;28;20113;-77
2021/09/04 08:23:48;;;;;;;9.77;7.70;;;;;;;;;;5100342;28;20039;-77
2021/09/04 08:26:14;;;;;;;5.63;4.13;;;;;;;;;;5100250;28;20099;-77
2021/09/04 08:28:40;;;;;;;66.40;47.78;;;;;;;;;;5099134;28;20051;-77
2021/09/04 08:31:06;;;;;;;37.40;28.88;;;;;;;;;;5100398;28;20024;-77
2021/09/04 08:33:32;;;;;;;138.20;93.15;;;;;;;;;;5100301;28;20047;-77
2021/09/04 08:35:58;;;;;;;30.88;22.70;;;;;;;;;;5099034;28;20028;-77
2021/09/04 08:38:24;;;;;;;24.73;15.73;;;;;;;;;;5100003;28;20024;-77
2021/09/04 08:40:51;;;;;;;9.15;5.80;;;;;;;;;;5099912;28;20020;-77
2021/09/04 08:43:17;;;;;;;12.95;10.95;;;;;;;;;;5099974;28;20413;-77
2021/09/04 08:45:45;;;;;;;143.57;104.97;;;;;;;;;;5100099;28;20016;-77
2021/09/04 08:48:11;;;;;;;20.33;14.15;;;;;;;;;;5099915;28;20035;-77
2021/09/04 08:50:37;;;;;;;17.67;12.73;;;;;;;;;;5099801;28;20074;-77
2021/09/04 08:53:04;;;;;;;7.53;4.65;;;;;;;;;;5099979;28;20028;-77
2021/09/04 08:55:30;;;;;;;5.35;3.53;;;;;;;;;;5099810;28;20027;-77
2021/09/04 08:57:56;;;;;;;5.55;3.67;;;;;;;;;;5099514;28;20028;-76
2021/09/04 09:00:30;;;;;;;6.13;4.25;;;;;;;;;;5099626;28;20027;-76
2021/09/04 09:02:56;;;;;;;7.78;4.25;;;;;;;;;;5099777;28;20047;-77
2021/09/04 09:05:22;;;;;;;8.27;6.13;;;;;;;;;;5099598;28;20016;-77
2021/09/04 09:07:49;;;;;;;7.75;5.72;;;;;;;;;;5099665;28;20028;-77
2021/09/04 09:10:21;;;;;;;5.15;3.90;;;;;;;;;;5099564;28;20104;-77
2021/09/04 09:12:47;;;;;;;4.15;3.50;;;;;;;;;;5099249;28;20111;-77
2021/09/04 09:15:20;;;;;;;4.75;4.03;;;;;;;;;;5099532;28;20024;-76
2021/09/04 09:17:56;;;;;;;5.95;3.95;;;;;;;;;;5099263;28;20067;-77
2021/09/04 09:20:24;;;;;;;5.38;4.40;;;;;;;;;;5099479;28;20016;-76
2021/09/04 09:22:50;;;;;;;20.02;14.10;;;;;;;;;;5099323;28;20028;-85
2021/09/04 09:25:17;;;;;;;10.65;7.55;;;;;;;;;;5099516;28;20054;-85
2021/09/04 09:27:59;;;;;;;5.05;3.63;;;;;;;;;;5098768;28;20047;-83
2021/09/04 09:30:34;;;;;;;4.93;3.40;;;;;;;;;;5099371;28;20024;-83
2021/09/04 09:33:00;;;;;;;7.70;3.45;;;;;;;;;;5099279;28;20099;-83
2021/09/04 09:35:33;;;;;;;6.85;3.47;;;;;;;;;;5098896;28;20413;-83
2021/09/04 09:38:01;;;;;;;9.95;4.72;;;;;;;;;;5099056;28;20402;-84
2021/09/04 09:40:27;;;;;;;5.47;4.25;;;;;;;;;;5097905;28;20043;-83
2021/09/04 09:42:53;;;;;;;10.60;3.88;;;;;;;;;;5098977;28;20020;-83
2021/09/04 09:45:19;;;;;;;3.58;2.88;;;;;;;;;;5099088;28;20086;-83
2021/09/04 09:47:51;;;;;;;5.28;3.47;;;;;;;;;;5098934;28;20024;-84
2021/09/04 09:50:18;;;;;;;7.10;3.75;;;;;;;;;;5097886;28;20036;-83
2021/09/04 09:52:47;;;;;;;6.75;4.93;;;;;;;;;;5097759;28;20032;-83
2021/09/04 09:55:13;;;;;;;7.20;4.93;;;;;;;;;;5097826;28;20020;-83
2021/09/04 09:57:44;;;;;;;10.52;5.78;;;;;;;;;;5097621;28;20409;-83
2021/09/04 10:00:11;;;;;;;4.47;3.03;;;;;;;;;;5098984;28;20023;-83
2021/09/04 10:02:37;;;;;;;4.95;3.45;;;;;;;;;;5098795;28;20028;-83
2021/09/04 10:05:04;;;;;;;5.15;3.65;;;;;;;;;;5098584;28;20040;-83
2021/09/04 10:07:30;;;;;;;7.95;3.72;;;;;;;;;;5098571;28;20394;-84
2021/09/04 10:09:56;;;;;;;8.00;3.80;;;;;;;;;;5098483;28;20409;-83
2021/09/04 10:12:24;;;;;;;7.90;4.30;;;;;;;;;;5098337;28;20024;-83
2021/09/04 10:14:51;;;;;;;4.03;2.85;;;;;;;;;;5098597;28;20023;-83
2021/09/04 10:17:18;;;;;;;5.30;3.13;;;;;;;;;;5097140;28;20036;-83
2021/09/04 10:19:45;;;;;;;10.65;5.97;;;;;;;;;;5098458;28;20167;-83
2021/09/04 10:22:12;;;;;;;7.28;3.78;;;;;;;;;;5097956;28;20069;-83
2021/09/04 10:24:48;;;;;;;6.80;4.72;;;;;;;;;;5096941;28;20036;-83
2021/09/04 10:27:34;;;;;;;4.88;3.33;;;;;;;;;;5098264;28;20024;-83
2021/09/04 10:30:20;;;;;;;5.43;3.10;;;;;;;;;;5097942;28;20039;-83
2021/09/04 10:32:56;;;;;;;5.57;3.22;;;;;;;;;;5097343;28;20027;-84
2021/09/04 10:35:37;;;;;;;4.63;3.50;;;;;;;;;;5096816;28;20020;-84
2021/09/04 10:38:09;;;;;;;4.32;3.65;;;;;;;;;;5098055;28;20032;-83
2021/09/04 10:40:36;;;;;;;5.03;3.25;;;;;;;;;;5098052;28;20016;-84
2021/09/04 10:43:06;;;;;;;4.60;3.75;;;;;;;;;;5098031;28;20020;-83
2021/09/04 10:45:32;;;;;;;5.13;3.75;;;;;;;;;;5098053;28;20069;-83
2021/09/04 10:47:58;;;;;;;8.07;3.80;;;;;;;;;;5096996;28;20032;-83
2021/09/04 10:50:26;;;;;;;5.18;3.60;;;;;;;;;;5097795;28;20118;-84
2021/09/04 10:52:56;;;;;;;5.88;4.00;;;;;;;;;;5098020;28;20027;-84
2021/09/04 10:55:51;;;;;;;4.22;3.50;;;;;;;;;;5097752;28;20072;-83
2021/09/04 10:58:18;;;;;;;6.78;3.85;;;;;;;;;;5015697;28;20060;-84
2021/09/04 11:00:47;;;;;;;7.10;4.05;;;;;;;;;;5016078;28;20041;-83
2021/09/04 11:03:14;;;;;;;6.68;3.22;;;;;;;;;;5016063;28;20030;-83
2021/09/04 11:05:56;;;;;;;4.60;3.03;;;;;;;;;;4999526;28;20148;-83
2021/09/04 11:08:29;;;;;;;4.25;3.10;;;;;;;;;;4999396;28;20049;-83
2021/09/04 11:11:17;;;;;;;3.50;2.97;;;;;;;;;;4999500;28;20026;-83
2021/09/04 11:13:44;;;;;;;6.55;3.20;;;;;;;;;;4999448;28;20030;-84
2021/09/04 11:16:29;;;;;;;8.60;3.88;;;;;;;;;;5015866;28;20034;-84
2021/09/04 11:19:01;;;;;;;6.47;3.30;;;;;;;;;;5015241;28;20125;-83
2021/09/04 11:21:27;;;;;;;4.50;3.08;;;;;;;;;;4999303;28;20041;-83
2021/09/04 11:23:53;;;;;;;7.15;4.00;;;;;;;;;;4999188;28;20041;-83
2021/09/04 11:26:20;;;;;;;11.05;6.93;;;;;;;;;;5015706;28;20054;-83
2021/09/04 11:28:54;;;;;;;7.90;4.93;;;;;;;;;;4999038;28;20042;-83
2021/09/04 11:31:20;;;;;;;6.57;3.50;;;;;;;;;;4999333;28;20080;-83
2021/09/04 11:33:56;;;;;;;5.53;4.15;;;;;;;;;;5027267;28;20123;-83
2021/09/04 11:36:48;;;;;;;9.35;5.55;;;;;;;;;;5101788;28;20054;-83
2021/09/04 11:39:14;;;;;;;7.05;4.40;;;;;;;;;;5097875;28;20370;-83
2021/09/04 11:41:46;;;;;;;6.35;4.10;;;;;;;;;;5101376;28;20406;-84
2021/09/04 11:44:12;;;;;;;4.70;4.18;;;;;;;;;;5101594;28;20050;-84
2021/09/04 11:46:38;;;;;;;6.60;4.20;;;;;;;;;;5101484;28;20024;-84
2021/09/04 11:49:06;;;;;;;5.15;3.50;;;;;;;;;;5101446;28;20020;-83
2021/09/04 11:51:32;;;;;;;5.30;4.15;;;;;;;;;;5100423;28;20044;-84
2021/09/04 11:54:02;;;;;;;5.20;4.03;;;;;;;;;;5100932;28;20116;-82
2021/09/04 11:56:32;;;;;;;7.40;5.55;;;;;;;;;;5101291;28;20171;-84
2021/09/04 11:59:10;;;;;;;5.90;4.43;;;;;;;;;;5101246;28;20114;-83
2021/09/04 12:01:36;;;;;;;6.07;4.45;;;;;;;;;;5101070;28;20028;-83
2021/09/04 12:04:03;;;;;;;8.25;5.38;;;;;;;;;;5100096;28;20053;-83
2021/09/04 12:06:29;;;;;;;10.73;4.65;;;;;;;;;;5101185;28;20054;-83
2021/09/04 12:08:55;;;;;;;8.80;7.35;;;;;;;;;;5100710;28;20032;-83
2021/09/04 12:11:22;;;;;;;11.93;7.47;;;;;;;;;;5101208;28;20417;-83
2021/09/04 12:13:48;;;;;;;6.65;3.83;;;;;;;;;;5100130;28;20409;-83
2021/09/04 12:16:17;;;;;;;5.50;3.30;;;;;;;;;;5100861;28;20073;-83
2021/09/04 12:18:45;;;;;;;4.20;3.35;;;;;;;;;;5100548;28;20043;-83
2021/09/04 12:21:18;;;;;;;5.22;3.42;;;;;;;;;;5099481;28;20024;-78
2021/09/04 12:23:45;;;;;;;6.57;4.28;;;;;;;;;;5100244;28;20315;-77
2021/09/04 12:26:11;;;;;;;7.30;4.75;;;;;;;;;;5100487;28;20053;-78
2021/09/04 12:28:37;;;;;;;5.28;4.20;;;;;;;;;;5100232;28;20071;-77
2021/09/04 12:31:06;;;;;;;6.63;3.42;;;;;;;;;;5100230;28;20028;-77
2021/09/04 12:33:32;;;;;;;5.38;3.47;;;;;;;;;;5099702;28;20061;-78
2021/09/04 12:36:03;;;;;;;7.00;3.53;;;;;;;;;;5099896;28;20028;-77
2021/09/04 12:38:34;;;;;;;11.40;4.47;;;;;;;;;;5099975;28;20055;-77
2021/09/04 12:41:01;;;;;;;5.55;3.47;;;;;;;;;;5100006;28;20024;-77
2021/09/04 12:43:29;;;;;;;3.88;3.22;;;;;;;;;;5100221;28;20028;-77
2021/09/04 12:45:59;;;;;;;8.32;3.88;;;;;;;;;;5099160;28;20035;-77
2021/09/04 12:48:29;;;;;;;5.97;3.40;;;;;;;;;;5099932;28;20020;-77
2021/09/04 12:51:14;;;;;;;8.25;4.05;;;;;;;;;;5098899;28;20103;-77
2021/09/04 12:53:40;;;;;;;5.78;3.40;;;;;;;;;;5099788;28;20432;-77
2021/09/04 12:56:07;;;;;;;4.45;3.20;;;;;;;;;;5098803;28;20078;-77
2021/09/04 12:58:33;;;;;;;6.43;3.15;;;;;;;;;;5099466;28;20107;-77
2021/09/04 13:01:06;;;;;;;5.10;3.53;;;;;;;;;;5099718;28;20024;-77
2021/09/04 13:03:32;;;;;;;6.28;3.15;;;;;;;;;;5098577;28;20405;-77
2021/09/04 13:05:58;;;;;;;6.30;3.65;;;;;;;;;;5099786;28;20028;-77
2021/09/04 13:08:24;;;;;;;3.88;3.35;;;;;;;;;;5099441;28;20318;-77
2021/09/04 13:10:51;;;;;;;5.85;3.00;;;;;;;;;;5099613;28;20292;-77
2021/09/04 13:13:17;;;;;;;4.38;3.47;;;;;;;;;;5099373;28;20032;-77
2021/09/04 13:15:43;;;;;;;8.40;3.60;;;;;;;;;;5099517;28;20052;-77
2021/09/04 13:18:09;;;;;;;4.63;3.70;;;;;;;;;;5099231;28;20044;-77
2021/09/04 13:20:35;;;;;;;11.32;4.18;;;;;;;;;;5093737;28;20029;-77
2021/09/04 13:23:01;;;;;;;17.20;14.18;;;;;;;;;;5083747;28;20138;-77
2021/09/04 13:25:27;;;;;;;82.53;63.45;;;;;;;;;;5096982;28;20024;-78
2021/09/04 13:27:53;;;;;;;12.30;7.70;;;;;;;;;;5096636;28;20024;-77
2021/09/04 13:30:21;;;;;;;33.13;26.92;;;;;;;;;;5095808;28;20024;-77
2021/09/04 13:32:47;;;;;;;54.53;43.00;;;;;;;;;;5097442;28;20549;-77
2021/09/04 13:35:14;;;;;;;46.75;38.28;;;;;;;;;;5098071;28;20345;-77
2021/09/04 13:37:41;;;;;;;22.13;18.40;;;;;;;;;;5077396;28;20040;-78
2021/09/04 13:40:07;;;;;;;47.70;36.97;;;;;;;;;;5078500;28;20067;-77
2021/09/04 13:42:33;;;;;;;13.82;11.63;;;;;;;;;;5079708;28;20040;-76
2021/09/04 13:44:59;;;;;;;7.07;3.60;;;;;;;;;;5078467;28;20017;-76
2021/09/04 13:47:25;;;;;;;11.13;8.68;;;;;;;;;;5077240;28;20120;-76
2021/09/04 13:49:51;;;;;;;4.60;3.40;;;;;;;;;;5086720;28;20024;-76
2021/09/04 13:52:18;;;;;;;21.77;12.70;;;;;;;;;;5078336;28;20145;-76
2021/09/04 13:54:44;;;;;;;6.60;4.60;;;;;;;;;;5080548;28;20027;-78
2021/09/04 13:57:10;;;;;;;12.25;7.75;;;;;;;;;;5096758;28;20059;-77
2021/09/04 13:59:36;;;;;;;8.80;5.35;;;;;;;;;;5096153;28;20039;-78
2021/09/04 14:02:02;;;;;;;5.25;3.55;;;;;;;;;;5097792;28;20333;-77
2021/09/04 14:04:28;;;;;;;4.97;3.20;;;;;;;;;;5098393;28;20027;-77
2021/09/04 14:06:57;;;;;;;5.15;3.17;;;;;;;;;;5097852;28;20020;-76
2021/09/04 14:09:23;;;;;;;4.07;3.00;;;;;;;;;;5098622;28;20031;-77
2021/09/04 14:11:49;;;;;;;6.05;3.13;;;;;;;;;;5097011;28;20028;-77
2021/09/04 14:14:15;;;;;;;7.00;3.03;;;;;;;;;;5098434;28;20044;-77
2021/09/04 14:16:41;;;;;;;6.38;3.45;;;;;;;;;;5097392;28;20035;-77
2021/09/04 14:19:07;;;;;;;7.47;3.20;;;;;;;;;;5096875;28;20044;-77
2021/09/04 14:21:33;;;;;;;7.40;4.78;;;;;;;;;;5097936;28;20051;-77
2021/09/04 14:23:59;;;;;;;7.20;4.10;;;;;;;;;;5098030;28;20016;-76
2021/09/04 14:26:25;;;;;;;5.47;3.08;;;;;;;;;;5097970;28;20024;-77
2021/09/04 14:28:51;;;;;;;5.13;3.13;;;;;;;;;;5098207;28;20035;-76
2021/09/04 14:31:17;;;;;;;11.32;5.50;;;;;;;;;;5095758;28;20071;-77
2021/09/04 14:33:43;;;;;;;16.25;6.20;;;;;;;;;;5088724;28;20024;-77